createdAt,value
2022-11-30T00:01:13.214Z,12.43
2022-11-30T00:03:39.752Z,9.73
2022-11-30T00:06:07.965Z,9.90
2022-11-30T00:08:34.471Z,9.37
2022-11-30T00:11:01.111Z,11.30
2022-11-30T00:13:27.628Z,17.30
2022-11-30T00:15:54.042Z,12.87
2022-11-30T00:18:20.605Z,9.30
2022-11-30T00:20:46.957Z,9.23
2022-11-30T00:23:13.366Z,11.87
2022-11-30T00:25:39.762Z,9.40
2022-11-30T00:28:06.230Z,9.43
2022-11-30T00:30:32.684Z,11.10
2022-11-30T00:32:59.235Z,10.23
2022-11-30T00:35:25.699Z,8.20
2022-11-30T00:37:52.250Z,10.77
2022-11-30T00:40:18.702Z,10.97
2022-11-30T00:42:45.142Z,11.37
2022-11-30T00:45:11.562Z,10.33
2022-11-30T00:47:38.069Z,8.57
2022-11-30T00:50:05.007Z,9.90
2022-11-30T00:52:31.492Z,9.87
2022-11-30T00:54:57.914Z,11.00
2022-11-30T00:57:24.306Z,11.70
2022-11-30T00:59:50.736Z,9.37
2022-11-30T01:02:18.777Z,15.60
2022-11-30T01:04:45.477Z,9.70
2022-11-30T01:07:12.017Z,8.53
2022-11-30T01:09:38.528Z,12.10
2022-11-30T01:12:05.040Z,9.00
2022-11-30T01:14:31.432Z,8.63
2022-11-30T01:16:58.972Z,11.77
2022-11-30T01:19:25.495Z,11.10
2022-11-30T01:21:51.909Z,8.13
2022-11-30T01:24:18.301Z,12.10
2022-11-30T01:26:44.711Z,7.87
2022-11-30T01:29:11.099Z,5.93
2022-11-30T01:31:37.528Z,7.83
2022-11-30T01:34:03.976Z,9.20
2022-11-30T01:36:30.383Z,10.30
2022-11-30T01:38:58.200Z,7.10
2022-11-30T01:41:30.795Z,5.63
2022-11-30T01:44:06.281Z,7.93
2022-11-30T01:47:11.510Z,7.77
2022-11-30T01:49:44.085Z,6.37
2022-11-30T01:52:24.697Z,11.10
2022-11-30T01:54:56.946Z,8.10
2022-11-30T01:57:34.545Z,12.70
2022-11-30T02:00:02.295Z,6.63
2022-11-30T02:02:40.398Z,6.17
2022-11-30T02:05:08.016Z,9.13
2022-11-30T02:07:35.191Z,4.87
2022-11-30T02:10:01.717Z,7.33
2022-11-30T02:12:39.879Z,10.93
2022-11-30T02:15:11.915Z,5.57
2022-11-30T02:18:14.461Z,7.20
2022-11-30T02:21:13.324Z,6.60
2022-11-30T02:23:58.046Z,7.83
2022-11-30T02:26:54.639Z,5.27
2022-11-30T02:29:49.665Z,6.33
2022-11-30T02:32:34.912Z,5.27
2022-11-30T02:35:04.145Z,5.43
2022-11-30T02:37:33.298Z,5.87
2022-11-30T02:39:59.804Z,6.30
2022-11-30T02:42:26.199Z,7.33
2022-11-30T02:44:54.044Z,5.93
2022-11-30T02:47:35.339Z,9.27
2022-11-30T02:50:10.232Z,8.13
2022-11-30T02:52:36.777Z,4.70
2022-11-30T02:55:07.100Z,3.63
2022-11-30T02:57:34.471Z,5.67
2022-11-30T03:00:03.949Z,5.93
2022-11-30T03:02:30.464Z,3.40
2022-11-30T03:04:56.987Z,4.47
2022-11-30T03:07:23.479Z,6.93
2022-11-30T03:09:50.287Z,8.37
2022-11-30T03:12:16.699Z,8.90
2022-11-30T03:14:43.087Z,4.37
2022-11-30T03:17:09.604Z,5.10
2022-11-30T03:19:36.007Z,4.27
2022-11-30T03:22:02.427Z,7.93
2022-11-30T03:24:28.891Z,10.57
2022-11-30T03:26:55.351Z,7.40
2022-11-30T03:29:21.929Z,7.57
2022-11-30T03:31:48.345Z,11.87
2022-11-30T03:34:14.854Z,7.83
2022-11-30T03:36:41.276Z,8.07
2022-11-30T03:39:07.777Z,9.20
2022-11-30T03:41:34.150Z,10.20
2022-11-30T03:44:00.651Z,10.37
2022-11-30T03:46:27.628Z,11.87
2022-11-30T03:48:54.364Z,15.70
2022-11-30T03:51:20.907Z,19.93
2022-11-30T03:53:47.450Z,14.93
2022-11-30T03:56:14.412Z,10.33
2022-11-30T03:58:40.979Z,14.43
2022-11-30T04:01:19.318Z,17.10
2022-11-30T04:03:45.802Z,19.67
2022-11-30T04:06:13.076Z,18.10
2022-11-30T04:08:40.275Z,19.73
2022-11-30T04:11:08.223Z,25.23
2022-11-30T04:13:36.224Z,15.30
2022-11-30T04:16:03.465Z,18.10
2022-11-30T04:18:32.221Z,14.47
2022-11-30T04:20:59.719Z,17.47
2022-11-30T04:23:30.135Z,17.43
2022-11-30T04:25:57.374Z,19.10
2022-11-30T04:28:23.817Z,22.27
2022-11-30T04:30:50.351Z,19.83
2022-11-30T04:33:17.219Z,18.90
2022-11-30T04:35:47.317Z,20.33
2022-11-30T04:38:14.098Z,21.37
2022-11-30T04:40:41.779Z,24.60
2022-11-30T04:43:09.417Z,22.43
2022-11-30T04:45:36.091Z,22.27
2022-11-30T04:48:03.639Z,20.00
2022-11-30T04:50:30.120Z,21.17
2022-11-30T04:52:57.378Z,24.33
2022-11-30T04:55:24.227Z,25.67
2022-11-30T04:57:50.764Z,25.40
2022-11-30T05:00:18.989Z,20.97
2022-11-30T05:02:52.221Z,28.07
2022-11-30T05:05:19.501Z,27.27
2022-11-30T05:07:50.596Z,21.90
2022-11-30T05:10:17.490Z,20.50
2022-11-30T05:12:43.917Z,25.43
2022-11-30T05:15:10.577Z,23.43
2022-11-30T05:17:37.043Z,26.27
2022-11-30T05:20:04.070Z,18.03
2022-11-30T05:22:30.692Z,22.67
2022-11-30T05:24:57.124Z,25.40
2022-11-30T05:27:23.535Z,24.67
2022-11-30T05:29:49.956Z,21.23
2022-11-30T05:32:16.337Z,22.60
2022-11-30T05:34:50.483Z,22.87
2022-11-30T05:37:18.056Z,24.87
2022-11-30T05:39:44.528Z,23.97
2022-11-30T05:42:10.904Z,22.13
2022-11-30T05:44:37.318Z,19.20
2022-11-30T05:47:04.038Z,22.70
2022-11-30T05:49:30.485Z,26.73
2022-11-30T05:51:56.850Z,23.47
2022-11-30T05:54:23.347Z,25.00
2022-11-30T05:56:54.490Z,29.93
2022-11-30T05:59:21.605Z,25.30
2022-11-30T06:01:48.157Z,25.63
2022-11-30T06:04:14.647Z,25.73
2022-11-30T06:06:41.057Z,27.87
2022-11-30T06:09:07.779Z,27.20
2022-11-30T06:11:35.250Z,24.80
2022-11-30T06:14:01.906Z,26.63
2022-11-30T06:16:28.511Z,22.77
2022-11-30T06:18:55.043Z,24.27
2022-11-30T06:21:24.605Z,30.43
2022-11-30T06:23:52.051Z,28.23
2022-11-30T06:26:18.493Z,28.27
2022-11-30T06:28:48.210Z,28.90
2022-11-30T06:31:16.005Z,24.87
2022-11-30T06:33:42.660Z,27.27
2022-11-30T06:36:09.486Z,28.73
2022-11-30T06:38:35.938Z,31.00
2022-11-30T06:41:10.383Z,29.47
2022-11-30T06:43:38.728Z,27.97
2022-11-30T06:46:06.913Z,24.70
2022-11-30T06:48:34.213Z,31.70
2022-11-30T06:51:00.688Z,28.13
2022-11-30T06:53:27.824Z,27.40
2022-11-30T06:55:54.548Z,30.47
2022-11-30T06:58:20.939Z,24.70
2022-11-30T07:00:47.720Z,27.53
2022-11-30T07:03:14.536Z,20.63
2022-11-30T07:05:43.957Z,27.60
2022-11-30T07:08:14.413Z,31.03
2022-11-30T07:10:45.752Z,30.03
2022-11-30T07:13:14.267Z,28.20
2022-11-30T07:15:42.277Z,25.77
2022-11-30T07:18:09.813Z,25.40
2022-11-30T07:20:37.560Z,27.97
2022-11-30T07:23:23.112Z,23.43
2022-11-30T07:26:09.399Z,32.13
2022-11-30T07:28:40.999Z,31.07
2022-11-30T07:31:17.508Z,32.97
2022-11-30T07:33:44.374Z,34.17
2022-11-30T07:36:11.232Z,33.23
2022-11-30T07:38:38.486Z,30.90
2022-11-30T07:41:05.531Z,35.70
2022-11-30T07:43:33.075Z,29.90
2022-11-30T07:46:00.711Z,27.37
2022-11-30T07:48:27.696Z,28.10
2022-11-30T07:50:54.456Z,34.67
2022-11-30T07:53:20.896Z,26.73
2022-11-30T07:55:48.271Z,30.97
2022-11-30T07:58:17.571Z,33.13
2022-11-30T08:00:44.427Z,29.47
2022-11-30T08:03:11.003Z,33.60
2022-11-30T08:05:37.468Z,30.10
2022-11-30T08:08:03.906Z,37.33
2022-11-30T08:10:30.439Z,29.73
2022-11-30T08:12:56.821Z,36.50
2022-11-30T08:15:27.529Z,31.10
2022-11-30T08:18:00.206Z,24.80
2022-11-30T08:20:26.691Z,32.87
2022-11-30T08:22:53.126Z,27.50
2022-11-30T08:25:19.519Z,34.17
2022-11-30T08:27:45.962Z,31.13
2022-11-30T08:30:12.672Z,31.60
2022-11-30T08:32:39.129Z,22.87
2022-11-30T08:35:06.063Z,27.63
2022-11-30T08:37:35.383Z,26.53
2022-11-30T08:40:01.810Z,31.13
2022-11-30T08:42:28.220Z,33.33
2022-11-30T08:44:55.769Z,21.60
2022-11-30T08:47:22.406Z,29.70
2022-11-30T08:49:49.042Z,29.83
2022-11-30T08:52:17.420Z,24.30
2022-11-30T08:54:46.594Z,23.37
2022-11-30T08:57:14.815Z,21.50
2022-11-30T08:59:41.217Z,22.90
2022-11-30T09:02:10.532Z,20.53
2022-11-30T09:04:38.033Z,23.17
2022-11-30T09:07:04.502Z,26.60
2022-11-30T09:09:31.458Z,22.07
2022-11-30T09:11:57.940Z,27.87
2022-11-30T09:14:24.446Z,34.70
2022-11-30T09:16:50.890Z,24.80
2022-11-30T09:19:17.308Z,24.93
2022-11-30T09:21:51.023Z,21.07
2022-11-30T09:24:18.192Z,20.17
2022-11-30T09:26:44.630Z,21.73
2022-11-30T09:29:11.028Z,21.00
2022-11-30T09:31:37.486Z,20.87
2022-11-30T09:34:03.931Z,21.83
2022-11-30T09:36:30.961Z,23.03
2022-11-30T09:38:57.477Z,24.10
2022-11-30T09:41:58.614Z,21.40
2022-11-30T09:44:43.465Z,21.67
2022-11-30T09:47:19.160Z,25.73
2022-11-30T09:49:48.586Z,39.33
2022-11-30T09:52:22.954Z,25.43
2022-11-30T09:54:49.746Z,37.07
2022-11-30T09:57:19.126Z,33.03
2022-11-30T09:59:53.402Z,43.47
2022-11-30T10:02:22.338Z,28.17
2022-11-30T10:04:49.473Z,22.03
2022-11-30T10:07:53.629Z,24.67
2022-11-30T10:10:46.489Z,26.73
2022-11-30T10:13:39.293Z,37.83
2022-11-30T10:16:16.659Z,40.93
2022-11-30T10:19:05.752Z,41.33
2022-11-30T10:21:41.210Z,28.80
2022-11-30T10:24:10.578Z,28.50
2022-11-30T10:26:43.071Z,27.23
2022-11-30T10:29:24.956Z,25.17
2022-11-30T10:31:57.094Z,26.50
2022-11-30T10:34:28.856Z,25.30
2022-11-30T10:37:12.738Z,24.83
2022-11-30T10:39:55.737Z,29.13
2022-11-30T10:42:34.470Z,31.57
2022-11-30T10:45:06.282Z,27.63
2022-11-30T10:47:37.270Z,25.97
2022-11-30T10:50:06.107Z,39.17
2022-11-30T10:52:48.486Z,30.00
2022-11-30T10:55:21.891Z,30.60
2022-11-30T10:57:54.146Z,34.87
2022-11-30T11:00:21.001Z,29.67
2022-11-30T11:02:49.384Z,46.47
2022-11-30T11:05:21.906Z,53.37
2022-11-30T11:07:52.329Z,37.20
2022-11-30T11:10:36.835Z,54.30
2022-11-30T11:13:05.106Z,40.63
2022-11-30T11:15:33.714Z,59.77
2022-11-30T11:18:22.853Z,59.13
2022-11-30T11:21:04.389Z,58.63
2022-11-30T11:23:42.533Z,52.30
2022-11-30T11:26:22.589Z,47.37
2022-11-30T11:28:51.824Z,68.17
2022-11-30T11:31:24.439Z,50.23
2022-11-30T11:33:54.162Z,46.57
2022-11-30T11:36:32.044Z,54.80
2022-11-30T11:38:59.196Z,57.70
2022-11-30T11:41:31.459Z,45.83
2022-11-30T11:44:10.097Z,46.13
2022-11-30T11:46:51.862Z,49.40
2022-11-30T11:49:22.890Z,60.50
2022-11-30T11:52:07.365Z,49.57
2022-11-30T11:54:43.251Z,49.63
2022-11-30T11:57:15.735Z,42.27
2022-11-30T12:00:05.406Z,56.03
2022-11-30T12:02:48.886Z,52.50
2022-11-30T12:05:26.870Z,48.47
2022-11-30T12:08:17.706Z,47.93
2022-11-30T12:11:00.493Z,46.27
2022-11-30T12:13:34.265Z,37.77
2022-11-30T12:16:39.599Z,37.50
2022-11-30T12:19:22.609Z,47.97
2022-11-30T12:22:07.470Z,40.33
2022-11-30T12:25:04.261Z,31.00
2022-11-30T12:27:35.212Z,35.80
2022-11-30T12:30:25.217Z,34.57
2022-11-30T12:33:10.440Z,32.60
2022-11-30T12:35:50.078Z,35.33
2022-11-30T12:38:39.337Z,32.93
2022-11-30T12:41:31.319Z,32.57
2022-11-30T12:44:23.363Z,28.90
2022-11-30T12:47:17.694Z,31.07
2022-11-30T12:50:10.540Z,25.77
2022-11-30T12:52:54.163Z,25.27
2022-11-30T12:55:48.393Z,26.23
2022-11-30T12:58:24.927Z,21.03
2022-11-30T13:01:13.799Z,25.23
2022-11-30T13:03:51.464Z,17.97
2022-11-30T13:06:26.971Z,18.97
2022-11-30T13:09:06.139Z,23.13
2022-11-30T13:11:37.612Z,20.63
2022-11-30T13:14:25.712Z,20.97
2022-11-30T13:17:06.144Z,20.47
2022-11-30T13:19:48.203Z,21.43
2022-11-30T13:22:26.413Z,25.80
2022-11-30T13:25:59.774Z,29.13
2022-11-30T13:28:19.372Z,21.17
2022-11-30T13:31:15.005Z,20.20
2022-11-30T13:33:49.013Z,25.83
2022-11-30T13:36:43.560Z,20.80
2022-11-30T13:39:25.227Z,23.30
2022-11-30T13:42:08.522Z,24.47
2022-11-30T13:44:38.178Z,24.53
2022-11-30T13:47:15.944Z,23.63
2022-11-30T13:49:42.526Z,23.70
2022-11-30T13:52:22.565Z,29.53
2022-11-30T13:54:54.585Z,28.60
2022-11-30T13:57:30.306Z,24.17
2022-11-30T14:00:01.485Z,26.50
2022-11-30T14:02:31.488Z,24.60
2022-11-30T14:05:16.446Z,23.77
2022-11-30T14:07:50.063Z,26.37
2022-11-30T14:10:30.745Z,29.73
2022-11-30T14:12:58.705Z,29.30
2022-11-30T14:15:45.458Z,26.87
2022-11-30T14:18:11.964Z,27.90
2022-11-30T14:20:50.596Z,25.80
2022-11-30T14:23:55.494Z,31.00
2022-11-30T14:26:32.470Z,28.10
2022-11-30T14:29:08.030Z,20.33
2022-11-30T14:31:40.811Z,22.97
2022-11-30T14:34:18.530Z,22.00
2022-11-30T14:36:50.776Z,31.33
2022-11-30T14:39:35.073Z,29.93
2022-11-30T14:42:03.496Z,23.10
2022-11-30T14:44:35.356Z,27.37
2022-11-30T14:47:20.613Z,27.77
2022-11-30T14:49:49.050Z,24.10
2022-11-30T14:52:38.517Z,25.20
2022-11-30T14:55:27.732Z,19.80
2022-11-30T14:58:07.134Z,23.30
2022-11-30T15:00:39.715Z,28.93
2022-11-30T15:03:17.567Z,23.77
2022-11-30T15:05:44.442Z,27.57
2022-11-30T15:08:16.368Z,25.03
2022-11-30T15:10:43.666Z,29.10
2022-11-30T15:13:14.640Z,32.87
2022-11-30T15:15:52.996Z,28.97
2022-11-30T15:18:22.319Z,31.00
2022-11-30T15:20:57.414Z,29.73
2022-11-30T15:23:23.988Z,32.73
2022-11-30T15:26:04.302Z,35.00
2022-11-30T15:28:38.706Z,31.00
2022-11-30T15:31:10.630Z,27.47
2022-11-30T15:33:43.008Z,21.53
2022-11-30T15:36:27.919Z,33.57
2022-11-30T15:38:56.311Z,27.53
2022-11-30T15:41:25.398Z,33.40
2022-11-30T15:43:55.068Z,27.53
2022-11-30T15:46:46.170Z,31.03
2022-11-30T15:49:22.765Z,32.20
2022-11-30T15:52:00.840Z,33.13
2022-11-30T15:55:03.221Z,33.50
2022-11-30T15:58:02.185Z,28.07
2022-11-30T16:00:29.361Z,35.07
2022-11-30T16:03:13.080Z,32.37
2022-11-30T16:05:40.232Z,34.83
2022-11-30T16:08:16.487Z,32.33
2022-11-30T16:10:43.790Z,31.00
2022-11-30T16:13:18.982Z,30.17
2022-11-30T16:15:47.926Z,33.63
2022-11-30T16:18:23.611Z,32.03
2022-11-30T16:20:53.135Z,32.97
2022-11-30T16:23:20.558Z,40.00
2022-11-30T16:25:48.665Z,35.97
2022-11-30T16:28:17.223Z,35.53
2022-11-30T16:30:45.437Z,34.80
2022-11-30T16:33:17.539Z,33.07
2022-11-30T16:35:53.182Z,39.23
2022-11-30T16:38:20.022Z,38.93
2022-11-30T16:40:46.552Z,37.13
2022-11-30T16:43:13.461Z,33.83
2022-11-30T16:45:41.675Z,39.90
2022-11-30T16:48:08.206Z,34.50
2022-11-30T16:50:34.985Z,35.17
2022-11-30T16:53:05.259Z,36.50
2022-11-30T16:55:37.798Z,31.60
2022-11-30T16:58:05.108Z,33.27
2022-11-30T17:00:32.345Z,35.60
2022-11-30T17:03:16.768Z,32.00
2022-11-30T17:05:43.277Z,34.57
2022-11-30T17:08:10.973Z,40.50
2022-11-30T17:10:38.579Z,32.77
2022-11-30T17:13:05.951Z,34.47
2022-11-30T17:15:32.378Z,32.50
2022-11-30T17:17:59.416Z,39.27
2022-11-30T17:20:27.549Z,36.23
2022-11-30T17:22:54.050Z,33.77
2022-11-30T17:25:23.934Z,36.40
2022-11-30T17:27:51.529Z,32.27
2022-11-30T17:30:20.110Z,38.93
2022-11-30T17:32:47.416Z,36.33
2022-11-30T17:35:14.491Z,38.30
2022-11-30T17:37:40.991Z,34.87
2022-11-30T17:40:08.491Z,38.03
2022-11-30T17:42:34.933Z,36.37
2022-11-30T17:45:01.332Z,39.17
2022-11-30T17:47:27.794Z,41.27
2022-11-30T17:49:54.223Z,50.33
2022-11-30T17:52:20.622Z,43.87
2022-11-30T17:54:47.354Z,41.57
2022-11-30T17:57:14.052Z,38.50
2022-11-30T17:59:40.562Z,37.67
2022-11-30T18:02:09.372Z,40.30
2022-11-30T18:04:35.891Z,36.80
2022-11-30T18:07:02.381Z,37.33
2022-11-30T18:09:28.863Z,32.17
2022-11-30T18:11:55.394Z,34.30
2022-11-30T18:14:21.790Z,37.57
2022-11-30T18:16:48.334Z,37.93
2022-11-30T18:19:15.509Z,35.67
2022-11-30T18:21:44.184Z,36.10
2022-11-30T18:24:12.142Z,39.90
2022-11-30T18:26:39.529Z,38.83
2022-11-30T18:29:06.531Z,39.43
2022-11-30T18:31:33.341Z,39.70
2022-11-30T18:34:02.295Z,34.97
2022-11-30T18:36:29.224Z,37.37
2022-11-30T18:38:56.062Z,36.10
2022-11-30T18:41:26.152Z,42.87
2022-11-30T18:43:53.662Z,38.57
2022-11-30T18:46:20.599Z,41.90
2022-11-30T18:48:51.839Z,38.97
2022-11-30T18:51:21.463Z,32.10
2022-11-30T18:53:47.990Z,38.67
2022-11-30T18:56:20.242Z,38.10
2022-11-30T18:58:47.824Z,38.43
2022-11-30T19:01:19.403Z,40.03
2022-11-30T19:03:59.150Z,36.53
2022-11-30T19:06:29.487Z,34.00
2022-11-30T19:08:56.580Z,34.27
2022-11-30T19:11:23.140Z,35.57
2022-11-30T19:13:57.269Z,38.40
2022-11-30T19:16:24.777Z,34.97
2022-11-30T19:18:52.271Z,33.97
2022-11-30T19:21:21.046Z,39.70
2022-11-30T19:23:48.019Z,36.93
2022-11-30T19:26:15.280Z,38.63
2022-11-30T19:28:43.489Z,34.60
2022-11-30T19:31:11.788Z,38.63
2022-11-30T19:33:39.818Z,37.87
2022-11-30T19:36:08.689Z,36.20
2022-11-30T19:38:35.246Z,35.53
2022-11-30T19:41:20.905Z,37.40
2022-11-30T19:43:54.786Z,38.23
2022-11-30T19:46:24.050Z,39.30
2022-11-30T19:48:55.615Z,38.30
2022-11-30T19:51:22.279Z,36.23
2022-11-30T19:53:48.691Z,33.17
2022-11-30T19:56:17.238Z,36.57
2022-11-30T19:58:45.829Z,32.43
2022-11-30T20:01:17.281Z,31.93
2022-11-30T20:03:45.481Z,36.70
2022-11-30T20:06:12.064Z,38.83
2022-11-30T20:08:39.074Z,33.37
2022-11-30T20:11:07.359Z,34.17
2022-11-30T20:13:33.797Z,39.67
2022-11-30T20:16:07.190Z,36.67
2022-11-30T20:18:33.735Z,35.43
2022-11-30T20:21:13.024Z,33.70
2022-11-30T20:23:40.069Z,37.17
2022-11-30T20:26:21.381Z,40.07
2022-11-30T20:28:48.972Z,40.47
2022-11-30T20:31:17.682Z,39.17
2022-11-30T20:33:44.775Z,37.57
2022-11-30T20:36:11.996Z,41.87
2022-11-30T20:38:39.151Z,34.23
2022-11-30T20:41:09.907Z,39.13
2022-11-30T20:43:36.348Z,38.00
2022-11-30T20:46:02.940Z,38.37
2022-11-30T20:48:29.444Z,37.63
2022-11-30T20:51:22.042Z,39.53
2022-11-30T20:53:42.466Z,33.27
2022-11-30T20:56:09.544Z,37.97
2022-11-30T20:58:36.241Z,35.70
2022-11-30T21:01:19.143Z,34.23
2022-11-30T21:03:46.480Z,37.97
2022-11-30T21:06:14.527Z,37.07
2022-11-30T21:08:41.621Z,39.10
2022-11-30T21:11:11.578Z,34.90
2022-11-30T21:13:38.610Z,48.63
2022-11-30T21:16:07.029Z,36.17
2022-11-30T21:18:38.344Z,34.10
2022-11-30T21:21:07.104Z,37.30
2022-11-30T21:23:33.818Z,41.53
2022-11-30T21:26:04.795Z,37.80
2022-11-30T21:28:37.687Z,40.00
2022-11-30T21:31:04.800Z,37.60
2022-11-30T21:33:31.620Z,43.80
2022-11-30T21:35:58.100Z,41.23
2022-11-30T21:38:24.670Z,37.90
2022-11-30T21:40:59.190Z,36.30
2022-11-30T21:43:26.969Z,39.07
2022-11-30T21:46:07.658Z,40.40
2022-11-30T21:48:36.898Z,39.80
2022-11-30T21:51:18.188Z,38.73
2022-11-30T21:53:47.672Z,38.77
2022-11-30T21:56:17.347Z,36.90
2022-11-30T21:58:46.155Z,40.40
2022-11-30T22:01:14.255Z,36.47
2022-11-30T22:03:41.041Z,34.87
2022-11-30T22:06:10.539Z,36.00
2022-11-30T22:08:37.023Z,37.33
2022-11-30T22:11:05.949Z,39.17
2022-11-30T22:13:33.371Z,37.30
2022-11-30T22:16:02.452Z,37.63
2022-11-30T22:18:29.613Z,38.33
2022-11-30T22:21:05.903Z,37.40
2022-11-30T22:23:34.131Z,38.23
2022-11-30T22:26:28.212Z,34.40
2022-11-30T22:28:56.012Z,35.63
2022-11-30T22:31:25.073Z,38.50
2022-11-30T22:33:51.582Z,32.47
2022-11-30T22:36:21.139Z,34.50
2022-11-30T22:38:52.816Z,33.37
2022-11-30T22:41:19.234Z,35.93
2022-11-30T22:43:46.726Z,37.53
2022-11-30T22:46:16.347Z,40.63
2022-11-30T22:48:45.458Z,38.93
2022-11-30T22:51:15.099Z,37.20
2022-11-30T22:53:41.845Z,30.73
2022-11-30T22:56:12.779Z,34.80
2022-11-30T22:58:41.004Z,34.43
2022-11-30T23:01:12.695Z,30.23
2022-11-30T23:03:40.300Z,43.27
2022-11-30T23:06:07.191Z,33.67
2022-11-30T23:08:34.866Z,37.53
2022-11-30T23:11:04.282Z,30.07
2022-11-30T23:13:31.291Z,31.40
2022-11-30T23:15:59.838Z,34.27
2022-11-30T23:18:27.941Z,27.20
2022-11-30T23:20:55.397Z,30.93
2022-11-30T23:23:25.043Z,28.40
2022-11-30T23:25:51.468Z,30.70
2022-11-30T23:28:17.906Z,28.77
2022-11-30T23:30:44.443Z,31.27
2022-11-30T23:33:10.889Z,32.47
2022-11-30T23:35:43.215Z,29.40
2022-11-30T23:38:10.879Z,31.53
2022-11-30T23:40:37.274Z,37.77
2022-11-30T23:43:03.733Z,33.90
2022-11-30T23:45:30.138Z,32.07
2022-11-30T23:47:56.536Z,35.50
2022-11-30T23:50:22.930Z,35.17
2022-11-30T23:52:49.355Z,32.47
2022-11-30T23:55:15.900Z,34.27
2022-11-30T23:57:42.344Z,32.87
